Terminal Aerodrome Forecast
Issued by NWS Grand Rapids, MI

Home | Current Version | Previous Version | Text Only | Print | Product List | Glossary On
Versions: 1 2 3 4 5 6 7 8 9 10 11 12 13 14 15 16 17 18 19 20 21 22 23 24 25 26
263
FTUS43 KGRR 291140
TAFGRR
TAF
KGRR 291140Z 2912/3012 08003KT P6SM SCT250
     FM291500 07009KT P6SM BKN250
     FM300600 08010KT 3SM -RASN BR OVC025=

USA.gov is the U.S. government's official web portal to all federal, state and local government web resources and services.